Time;durP1;ratioP1;P1;durP2;ratioP2;P2;SDS_P1;SDS_P2;PMS_P1;PMS_P2;Temp;Humidity;BMP_temperature;BMP_pressure;BME280_temperature;BME280_humidity;BME280_pressure;Samples;Min_cycle;Max_cycle;Signal;HPM_P1;HPM_P2
2024/01/02 00:00:30;;;;;;;41.50;23.20;;;;;;;7.83;100.00;99851.08;106057;1252;60189;-81
2024/01/02 00:02:57;;;;;;;31.60;21.90;;;;;;;7.85;100.00;99852.54;106178;1254;72194;-79
2024/01/02 00:05:24;;;;;;;37.80;23.60;;;;;;;7.87;100.00;99852.77;106109;1254;63905;-81
2024/01/02 00:07:51;;;;;;;33.90;23.50;;;;;;;7.90;100.00;99849.50;106176;1253;72438;-80
2024/01/02 00:10:18;;;;;;;35.00;25.80;;;;;;;7.92;100.00;99844.35;106071;1250;60542;-81
2024/01/02 00:12:45;;;;;;;39.20;25.00;;;;;;;7.93;100.00;99842.16;106063;1252;60313;-79
2024/01/02 00:15:13;;;;;;;38.30;25.50;;;;;;;7.96;100.00;99843.23;106020;1250;72966;-80
2024/01/02 00:17:40;;;;;;;38.90;26.40;;;;;;;7.97;100.00;99840.89;106169;1254;63864;-80
2024/01/02 00:20:08;;;;;;;41.50;26.30;;;;;;;7.98;100.00;99839.42;106030;1254;71459;-79
2024/01/02 00:22:35;;;;;;;39.00;26.50;;;;;;;7.99;100.00;99838.45;106033;1253;61164;-79
2024/01/02 00:25:03;;;;;;;36.30;25.90;;;;;;;8.00;100.00;99839.96;106047;1250;61575;-81
2024/01/02 00:27:31;;;;;;;39.40;26.40;;;;;;;8.02;100.00;99841.77;106060;1253;72840;-79
2024/01/02 00:29:58;;;;;;;38.20;26.50;;;;;;;8.05;100.00;99842.13;105976;1254;62649;-80
2024/01/02 00:32:25;;;;;;;40.90;27.10;;;;;;;8.08;100.00;99841.94;106030;1251;73196;-81
2024/01/02 00:34:52;;;;;;;38.70;25.40;;;;;;;8.10;100.00;99845.63;106186;1253;59620;-80
2024/01/02 00:37:19;;;;;;;42.00;26.70;;;;;;;8.13;100.00;99845.63;106228;1253;59635;-82
2024/01/02 00:39:48;;;;;;;42.60;25.90;;;;;;;8.16;100.00;99839.54;106139;1251;72865;-78
2024/01/02 00:42:15;;;;;;;40.50;27.00;;;;;;;8.18;100.00;99837.13;106279;1254;64365;-76
2024/01/02 00:44:43;;;;;;;40.10;27.70;;;;;;;8.19;100.00;99835.84;105996;1251;72138;-79
2024/01/02 00:47:10;;;;;;;44.40;28.40;;;;;;;8.21;100.00;99834.83;106168;1249;60049;-79
2024/01/02 00:49:37;;;;;;;42.70;29.50;;;;;;;8.23;100.00;99835.92;106169;1250;60269;-79
2024/01/02 00:52:05;;;;;;;45.90;29.40;;;;;;;8.25;100.00;99833.39;106305;1253;72972;-80
2024/01/02 00:54:32;;;;;;;41.60;27.40;;;;;;;8.27;100.00;99834.98;106209;1254;64311;-78
2024/01/02 00:56:59;;;;;;;36.40;26.20;;;;;;;8.29;100.00;99832.09;105946;1253;72741;-78
2024/01/02 00:59:26;;;;;;;38.60;26.60;;;;;;;8.31;100.00;99831.98;106185;1253;61036;-77
2024/01/02 01:01:52;;;;;;;42.60;28.50;;;;;;;8.33;100.00;99832.19;106189;1250;60178;-81
2024/01/02 01:04:20;;;;;;;46.10;27.80;;;;;;;8.35;100.00;99830.31;106118;1252;72756;-80
2024/01/02 01:06:47;;;;;;;43.10;29.20;;;;;;;8.38;100.00;99823.35;106244;1251;62501;-78
2024/01/02 01:09:14;;;;;;;44.10;28.70;;;;;;;8.41;100.00;99817.27;106173;1254;72635;-80
2024/01/02 01:11:41;;;;;;;39.10;27.60;;;;;;;8.42;100.00;99820.88;106158;1254;61124;-80
2024/01/02 01:14:08;;;;;;;42.30;27.90;;;;;;;8.44;100.00;99818.98;106196;1254;59614;-79
2024/01/02 01:16:34;;;;;;;47.40;27.80;;;;;;;8.45;100.00;99815.80;106183;1251;72783;-78
2024/01/02 01:19:02;;;;;;;41.90;26.50;;;;;;;8.45;100.00;99820.29;106237;1253;63921;-81
2024/01/02 01:21:28;;;;;;;44.10;28.00;;;;;;;8.46;100.00;99825.66;106007;1254;72727;-79
2024/01/02 01:23:55;;;;;;;38.40;27.00;;;;;;;8.46;100.00;99820.73;105987;1252;59778;-79
2024/01/02 01:26:22;;;;;;;37.60;25.70;;;;;;;8.46;100.00;99816.23;106177;1254;59841;-81
2024/01/02 01:28:49;;;;;;;32.40;24.40;;;;;;;8.46;100.00;99823.18;106111;1249;73049;-78
2024/01/02 01:31:16;;;;;;;36.10;25.90;;;;;;;8.46;100.00;99824.26;106151;1254;63918;-79
2024/01/02 01:33:43;;;;;;;45.80;27.30;;;;;;;8.45;100.00;99822.19;105925;1252;71108;-79
2024/01/02 01:36:10;;;;;;;33.00;24.10;;;;;;;8.45;100.00;99814.20;106202;1254;60983;-81
2024/01/02 01:38:37;;;;;;;31.20;24.80;;;;;;;8.43;100.00;99819.41;106208;1252;60012;-77
2024/01/02 01:41:04;;;;;;;32.40;23.70;;;;;;;8.40;100.00;99812.09;106102;1249;72781;-78
2024/01/02 01:43:33;;;;;;;33.00;22.60;;;;;;;8.37;100.00;99801.82;106022;1254;63641;-79
2024/01/02 01:46:00;;;;;;;31.60;22.50;;;;;;;8.33;100.00;99798.04;106041;1251;71796;-78
2024/01/02 01:48:27;;;;;;;29.40;21.20;;;;;;;8.30;100.00;99792.16;106172;1253;59636;-79
2024/01/02 01:50:54;;;;;;;37.90;24.40;;;;;;;8.28;100.00;99794.17;106142;1253;59749;-80
2024/01/02 01:53:20;;;;;;;33.20;22.80;;;;;;;8.26;100.00;99786.13;106130;1251;72901;-78
2024/01/02 01:55:47;;;;;;;32.50;23.00;;;;;;;8.24;100.00;99787.48;106153;1253;62695;-77
2024/01/02 01:58:15;;;;;;;31.50;23.30;;;;;;;8.21;100.00;99792.89;106106;1251;70233;-78
2024/01/02 02:00:42;;;;;;;30.30;22.60;;;;;;;8.18;100.00;99797.63;105956;1254;61138;-79
2024/01/02 02:03:09;;;;;;;31.40;22.90;;;;;;;8.16;100.00;99790.26;106123;1254;59541;-82
2024/01/02 02:05:36;;;;;;;31.00;22.80;;;;;;;8.14;100.00;99781.68;106012;1250;73002;-79
2024/01/02 02:08:04;;;;;;;32.50;22.70;;;;;;;8.11;100.00;99780.48;106247;1251;62594;-82
2024/01/02 02:10:32;;;;;;;32.80;22.40;;;;;;;8.07;100.00;99781.20;105974;1252;72731;-79
2024/01/02 02:12:59;;;;;;;30.70;22.80;;;;;;;8.05;100.00;99782.41;107148;1254;59646;-78
2024/01/02 02:15:26;;;;;;;31.30;22.30;;;;;;;8.03;100.00;99777.13;106488;1251;60418;-77
2024/01/02 02:17:53;;;;;;;33.30;23.70;;;;;;;8.00;100.00;99779.21;106044;1251;71592;-76
2024/01/02 02:20:20;;;;;;;32.30;24.30;;;;;;;7.98;100.00;99776.58;105991;1251;62430;-79
2024/01/02 02:22:50;;;;;;;32.20;22.80;;;;;;;7.96;100.00;99769.41;106178;1254;72635;-77
2024/01/02 02:25:18;;;;;;;31.70;23.30;;;;;;;7.94;100.00;99763.77;106064;1252;59647;-79
2024/01/02 02:27:46;;;;;;;28.10;22.60;;;;;;;7.94;100.00;99764.67;106339;1253;60213;-79
2024/01/02 02:30:13;;;;;;;31.30;23.40;;;;;;;7.92;100.00;99764.27;106185;1254;73043;-78
2024/01/02 02:32:40;;;;;;;31.70;22.90;;;;;;;7.91;100.00;99762.92;106368;1254;63856;-80
2024/01/02 02:35:08;;;;;;;30.90;22.70;;;;;;;7.88;100.00;99758.09;106192;1250;71496;-77
2024/01/02 02:37:35;;;;;;;28.70;22.60;;;;;;;7.85;100.00;99758.77;106100;1253;61120;-79
2024/01/02 02:40:03;;;;;;;30.20;23.30;;;;;;;7.83;100.00;99757.17;106027;1251;60085;-78
2024/01/02 02:42:30;;;;;;;29.40;23.30;;;;;;;7.81;100.00;99757.80;106041;1251;73004;-78
2024/01/02 02:44:58;;;;;;;34.40;22.80;;;;;;;7.78;100.00;99755.04;106166;1254;63776;-76
2024/01/02 02:47:25;;;;;;;37.00;25.70;;;;;;;7.75;100.00;99760.59;106149;1254;72634;-78
2024/01/02 02:49:52;;;;;;;32.40;23.10;;;;;;;7.73;100.00;99760.62;106214;1254;59679;-78
2024/01/02 02:52:19;;;;;;;31.90;21.80;;;;;;;7.70;100.00;99755.00;106172;1250;60140;-80
2024/01/02 02:54:46;;;;;;;32.90;23.60;;;;;;;7.66;100.00;99756.99;106072;1251;71543;-77
2024/01/02 02:57:13;;;;;;;31.00;23.50;;;;;;;7.62;100.00;99758.48;105962;1254;63796;-78
2024/01/02 02:59:40;;;;;;;32.40;23.60;;;;;;;7.58;100.00;99755.06;106294;1253;72520;-77
2024/01/02 03:02:07;;;;;;;34.20;24.70;;;;;;;7.55;100.00;99759.63;106233;1253;59725;-78
2024/01/02 03:04:34;;;;;;;34.00;24.10;;;;;;;7.53;100.00;99750.34;106187;1251;60290;-78
2024/01/02 03:07:01;;;;;;;36.70;23.60;;;;;;;7.50;100.00;99748.23;106229;1253;73073;-79
2024/01/02 03:09:28;;;;;;;35.70;23.10;;;;;;;7.47;100.00;99736.93;106291;1254;62905;-78
2024/01/02 03:11:55;;;;;;;31.50;22.70;;;;;;;7.45;100.00;99740.89;106114;1250;71518;-77
2024/01/02 03:14:22;;;;;;;31.50;23.80;;;;;;;7.43;100.00;99747.10;106209;1254;59730;-79
2024/01/02 03:16:49;;;;;;;30.50;23.10;;;;;;;7.40;100.00;99748.48;106279;1254;60319;-78
2024/01/02 03:19:16;;;;;;;30.80;21.90;;;;;;;7.38;100.00;99749.84;106291;1251;72911;-77
2024/01/02 03:21:44;;;;;;;31.40;23.40;;;;;;;7.37;100.00;99744.52;106278;1254;63905;-79
2024/01/02 03:24:12;;;;;;;32.00;22.90;;;;;;;7.35;100.00;99752.12;106121;1253;72153;-79
2024/01/02 03:26:39;;;;;;;30.70;23.40;;;;;;;7.34;100.00;99750.27;106205;1254;59698;-79
2024/01/02 03:29:06;;;;;;;30.40;22.30;;;;;;;7.33;100.00;99752.08;106120;1253;59534;-78
2024/01/02 03:31:33;;;;;;;32.00;22.40;;;;;;;7.31;100.00;99762.99;106143;1250;73704;-79
2024/01/02 03:34:01;;;;;;;32.60;22.10;;;;;;;7.28;100.00;99767.64;106024;1254;63860;-77
2024/01/02 03:36:29;;;;;;;32.50;23.10;;;;;;;7.27;100.00;99761.13;106163;1251;71424;-78
2024/01/02 03:38:55;;;;;;;31.80;22.70;;;;;;;7.25;100.00;99762.98;106209;1254;61109;-78
2024/01/02 03:41:23;;;;;;;33.40;23.00;;;;;;;7.24;100.00;99756.23;106207;1251;60503;-77
2024/01/02 03:43:51;;;;;;;37.30;23.70;;;;;;;7.23;100.00;99753.90;106206;1254;73621;-78
2024/01/02 03:46:18;;;;;;;32.40;22.70;;;;;;;7.22;100.00;99759.14;106243;1253;63758;-77
2024/01/02 03:48:45;;;;;;;36.30;24.60;;;;;;;7.21;100.00;99762.17;106178;1254;72587;-78
2024/01/02 03:51:12;;;;;;;31.60;23.10;;;;;;;7.20;100.00;99761.16;106070;1253;60536;-77
2024/01/02 03:53:40;;;;;;;35.70;23.90;;;;;;;7.20;100.00;99753.70;106036;1254;60383;-81
2024/01/02 03:56:07;;;;;;;35.80;24.50;;;;;;;7.21;100.00;99756.23;106208;1251;72626;-80
2024/01/02 03:58:36;;;;;;;32.80;23.60;;;;;;;7.20;100.00;99763.95;105969;1251;62899;-79
2024/01/02 04:01:03;;;;;;;36.40;23.00;;;;;;;7.20;100.00;99764.64;106207;1250;72664;-78
2024/01/02 04:03:30;;;;;;;35.10;23.10;;;;;;;7.20;100.00;99764.83;106202;1254;61171;-77
2024/01/02 04:05:57;;;;;;;35.60;23.60;;;;;;;7.20;100.00;99768.49;106195;1251;60621;-77
2024/01/02 04:08:23;;;;;;;33.20;23.00;;;;;;;7.18;100.00;99770.50;106100;1253;73711;-78
2024/01/02 04:10:51;;;;;;;38.10;25.20;;;;;;;7.18;100.00;99769.64;106249;1253;64113;-77
2024/01/02 04:13:17;;;;;;;39.60;24.80;;;;;;;7.18;100.00;99772.61;106164;1251;71858;-79
2024/01/02 04:15:44;;;;;;;31.70;21.80;;;;;;;7.15;100.00;99772.45;106164;1254;60842;-79
2024/01/02 04:18:11;;;;;;;36.70;23.50;;;;;;;7.13;100.00;99774.10;106212;1251;60532;-79
2024/01/02 04:20:40;;;;;;;33.50;23.90;;;;;;;7.11;100.00;99772.11;106139;1251;73950;-79
2024/01/02 04:23:08;;;;;;;37.40;24.90;;;;;;;7.10;100.00;99768.38;106313;1253;62424;-79
2024/01/02 04:25:35;;;;;;;36.80;26.20;;;;;;;7.08;100.00;99767.60;106342;1252;72678;-78
2024/01/02 04:28:02;;;;;;;34.70;23.90;;;;;;;7.07;100.00;99766.48;106143;1254;60424;-77
2024/01/02 04:30:30;;;;;;;33.50;21.90;;;;;;;7.05;100.00;99765.70;106094;1252;60526;-80
2024/01/02 04:32:58;;;;;;;33.80;23.40;;;;;;;7.03;100.00;99761.66;106219;1253;73856;-78
2024/01/02 04:35:25;;;;;;;36.70;24.30;;;;;;;7.00;100.00;99760.96;106192;1253;63928;-77
2024/01/02 04:37:52;;;;;;;36.50;24.20;;;;;;;6.97;100.00;99767.73;106258;1254;72410;-79
2024/01/02 04:40:20;;;;;;;30.90;22.90;;;;;;;6.94;100.00;99769.00;106274;1249;60449;-80
2024/01/02 04:42:47;;;;;;;36.20;22.10;;;;;;;6.91;100.00;99771.40;106319;1254;60470;-77
2024/01/02 04:45:14;;;;;;;37.10;25.50;;;;;;;6.90;100.00;99774.95;106276;1251;74135;-79
2024/01/02 04:47:41;;;;;;;35.50;22.90;;;;;;;6.89;100.00;99784.71;106177;1254;63831;-78
2024/01/02 04:50:08;;;;;;;34.20;22.10;;;;;;;6.89;100.00;99789.41;106145;1253;72318;-79
2024/01/02 04:52:36;;;;;;;34.50;23.40;;;;;;;6.91;100.00;99786.88;106229;1254;61230;-77
2024/01/02 04:55:03;;;;;;;33.90;23.00;;;;;;;6.92;100.00;99791.16;106099;1251;60456;-78
2024/01/02 04:57:30;;;;;;;32.00;23.00;;;;;;;6.93;100.00;99787.80;106209;1251;73599;-79
2024/01/02 04:59:57;;;;;;;29.70;21.20;;;;;;;6.95;100.00;99793.27;106327;1253;63592;-78
2024/01/02 05:02:24;;;;;;;31.70;21.90;;;;;;;6.96;100.00;99792.83;106390;1254;71041;-77
2024/01/02 05:04:51;;;;;;;34.50;23.30;;;;;;;6.98;100.00;99801.58;106443;1254;60542;-79
2024/01/02 05:07:18;;;;;;;30.80;21.50;;;;;;;6.99;100.00;99803.10;106426;1254;60447;-78
2024/01/02 05:09:45;;;;;;;28.20;20.90;;;;;;;7.00;100.00;99807.20;106471;1253;73812;-78
2024/01/02 05:12:13;;;;;;;31.30;21.50;;;;;;;7.01;100.00;99818.29;107534;1251;63832;-77
2024/01/02 05:14:40;;;;;;;30.10;21.40;;;;;;;7.01;100.00;99819.95;107773;1251;71443;-77
2024/01/02 05:17:09;;;;;;;30.60;21.90;;;;;;;7.03;100.00;99822.31;107636;1254;61211;-77
2024/01/02 05:19:37;;;;;;;31.40;20.90;;;;;;;7.04;100.00;99829.56;106708;1250;60443;-78
2024/01/02 05:22:03;;;;;;;31.30;23.20;;;;;;;7.03;100.00;99837.61;106169;1254;73719;-80
2024/01/02 05:24:31;;;;;;;30.30;20.50;;;;;;;7.03;100.00;99842.43;106285;1253;64073;-79
2024/01/02 05:26:59;;;;;;;30.50;19.70;;;;;;;7.04;100.00;99842.73;106256;1254;72428;-79
2024/01/02 05:29:26;;;;;;;26.60;18.50;;;;;;;7.02;100.00;99850.50;106213;1253;60331;-79
2024/01/02 05:31:53;;;;;;;25.50;18.20;;;;;;;7.00;100.00;99851.31;106159;1250;60414;-81
2024/01/02 05:34:20;;;;;;;26.00;17.50;;;;;;;6.99;100.00;99852.25;106151;1252;73940;-80
2024/01/02 05:36:47;;;;;;;24.30;18.20;;;;;;;6.99;100.00;99856.28;106052;1254;63933;-79
2024/01/02 05:39:13;;;;;;;24.20;16.60;;;;;;;6.98;100.00;99862.56;106239;1252;72722;-80
2024/01/02 05:41:40;;;;;;;20.10;16.20;;;;;;;6.96;100.00;99867.92;106271;1254;60816;-82
2024/01/02 05:44:08;;;;;;;21.60;15.50;;;;;;;6.92;100.00;99868.67;106304;1251;60305;-80
2024/01/02 05:46:34;;;;;;;20.20;14.50;;;;;;;6.88;100.00;99869.42;106242;1251;73926;-80
2024/01/02 05:49:02;;;;;;;20.80;14.90;;;;;;;6.84;100.00;99877.63;106315;1253;62245;-77
2024/01/02 05:51:29;;;;;;;19.50;13.60;;;;;;;6.80;100.00;99879.23;106429;1250;71508;-81
2024/01/02 05:53:56;;;;;;;19.20;14.70;;;;;;;6.77;100.00;99881.83;106049;1254;61420;-79
2024/01/02 05:56:23;;;;;;;20.70;14.40;;;;;;;6.75;100.00;99884.88;106287;1253;60425;-80
2024/01/02 05:58:50;;;;;;;16.40;13.10;;;;;;;6.73;100.00;99887.26;106211;1251;72507;-80
2024/01/02 06:01:17;;;;;;;18.20;14.50;;;;;;;6.71;100.00;99895.71;106202;1253;63813;-81
2024/01/02 06:03:44;;;;;;;17.70;13.60;;;;;;;6.68;100.00;99897.29;106313;1251;72504;-82
2024/01/02 06:06:13;;;;;;;15.20;12.30;;;;;;;6.62;100.00;99896.73;107238;1253;60434;-81
2024/01/02 06:08:43;;;;;;;16.50;13.50;;;;;;;6.56;100.00;99898.27;107005;1251;60516;-78
2024/01/02 06:11:10;;;;;;;19.90;14.60;;;;;;;6.51;100.00;99898.54;106401;1249;73797;-80
2024/01/02 06:13:37;;;;;;;15.90;12.20;;;;;;;6.46;100.00;99899.02;106285;1253;63914;-81
2024/01/02 06:16:05;;;;;;;17.40;12.70;;;;;;;6.41;100.00;99900.80;106085;1254;71509;-82
2024/01/02 06:18:32;;;;;;;18.70;12.90;;;;;;;6.37;100.00;99897.06;106221;1254;61214;-81
2024/01/02 06:21:02;;;;;;;20.20;12.90;;;;;;;6.34;100.00;99902.45;106277;1254;60405;-81
2024/01/02 06:23:29;;;;;;;19.10;13.10;;;;;;;6.30;100.00;99907.70;106560;1251;73827;-79
2024/01/02 06:26:04;;;;;;;23.60;14.40;;;;;;;6.25;100.00;99899.98;107649;1251;62741;-80
2024/01/02 06:28:32;;;;;;;19.20;13.00;;;;;;;6.19;100.00;99899.92;106595;1254;72628;-80
2024/01/02 06:31:05;;;;;;;17.60;13.60;;;;;;;6.15;100.00;99901.16;106362;1253;61230;-81
2024/01/02 06:33:32;;;;;;;16.00;11.00;;;;;;;6.11;100.00;99903.83;106210;1253;60357;-82
2024/01/02 06:35:58;;;;;;;17.70;11.70;;;;;;;6.08;100.00;99904.71;106383;1254;73784;-80
2024/01/02 06:38:26;;;;;;;14.20;10.80;;;;;;;6.05;100.00;99905.73;106546;1253;63791;-82
2024/01/02 06:40:53;;;;;;;20.10;12.50;;;;;;;6.04;100.00;99913.27;106153;1254;70287;-80
2024/01/02 06:43:21;;;;;;;15.60;11.80;;;;;;;6.02;100.00;99918.38;106205;1254;61107;-82
2024/01/02 06:45:48;;;;;;;15.70;11.70;;;;;;;6.00;100.00;99920.00;106289;1254;62039;-82
2024/01/02 06:48:16;;;;;;;16.10;10.30;;;;;;;5.99;100.00;99915.58;106173;1251;73711;-81
2024/01/02 06:50:43;;;;;;;18.00;11.80;;;;;;;5.97;100.00;99912.89;106219;1252;63698;-84
2024/01/02 06:53:09;;;;;;;18.30;10.90;;;;;;;5.96;100.00;99918.52;106085;1251;71347;-81
2024/01/02 06:55:36;;;;;;;13.80;10.30;;;;;;;5.93;100.00;99917.23;106249;1253;61166;-82
2024/01/02 06:58:04;;;;;;;14.00;9.90;;;;;;;5.92;100.00;99917.27;106218;1253;60416;-80
2024/01/02 07:00:32;;;;;;;16.80;11.10;;;;;;;5.92;100.00;99918.32;106196;1254;73670;-82
2024/01/02 07:02:59;;;;;;;13.30;11.30;;;;;;;5.92;100.00;99919.20;106231;1253;63892;-81
2024/01/02 07:05:28;;;;;;;18.00;12.10;;;;;;;5.92;100.00;99918.85;106148;1254;71511;-80
2024/01/02 07:07:56;;;;;;;13.40;9.90;;;;;;;5.91;100.00;99918.70;106347;1254;61156;-78
2024/01/02 07:10:24;;;;;;;12.10;9.50;;;;;;;5.92;100.00;99913.80;106256;1253;60428;-81
2024/01/02 07:12:51;;;;;;;11.40;8.20;;;;;;;5.93;100.00;99914.48;106199;1253;73094;-81
2024/01/02 07:15:18;;;;;;;11.90;8.90;;;;;;;5.92;100.00;99910.87;106188;1252;62526;-82
2024/01/02 07:17:46;;;;;;;9.40;7.50;;;;;;;5.94;100.00;99905.41;106196;1254;72588;-83
2024/01/02 07:20:13;;;;;;;11.10;6.90;;;;;;;5.94;100.00;99910.46;106188;1254;60446;-81
2024/01/02 07:22:40;;;;;;;10.50;6.80;;;;;;;5.94;100.00;99908.00;106120;1250;60555;-82
2024/01/02 07:25:07;;;;;;;7.80;5.30;;;;;;;5.95;100.00;99910.41;106161;1249;73921;-81
2024/01/02 07:27:34;;;;;;;7.20;5.90;;;;;;;5.95;100.00;99912.64;106135;1253;64145;-82
2024/01/02 07:30:01;;;;;;;8.70;6.30;;;;;;;5.96;100.00;99907.90;106131;1254;72589;-81
2024/01/02 07:32:29;;;;;;;8.10;6.10;;;;;;;5.99;100.00;99912.77;106163;1254;61013;-82
2024/01/02 07:34:55;;;;;;;8.70;6.00;;;;;;;6.01;100.00;99912.33;106102;1254;60415;-81
2024/01/02 07:37:23;;;;;;;7.30;5.60;;;;;;;6.03;100.00;99922.68;106209;1254;73857;-78
2024/01/02 07:39:51;;;;;;;8.60;5.70;;;;;;;6.05;100.00;99926.91;106160;1253;62346;-80
2024/01/02 07:42:19;;;;;;;9.50;7.30;;;;;;;6.06;100.00;99935.83;106086;1254;71150;-80
2024/01/02 07:44:46;;;;;;;7.80;6.40;;;;;;;6.07;100.00;99934.92;106082;1256;60427;-79
2024/01/02 07:47:13;;;;;;;8.00;5.70;;;;;;;6.07;100.00;99931.64;106131;1253;60498;-82
2024/01/02 07:49:40;;;;;;;10.90;6.40;;;;;;;6.05;100.00;99930.17;106210;1254;73738;-81
2024/01/02 07:52:06;;;;;;;9.40;5.80;;;;;;;6.03;100.00;99936.70;106205;1254;62518;-80
2024/01/02 07:54:37;;;;;;;9.00;6.30;;;;;;;6.02;100.00;99936.92;106205;1254;72612;-80
2024/01/02 07:57:05;;;;;;;11.50;6.80;;;;;;;6.02;100.00;99939.70;106188;1253;61179;-81
2024/01/02 07:59:34;;;;;;;9.80;6.90;;;;;;;6.03;100.00;99942.77;106242;1253;60430;-81
2024/01/02 08:02:01;;;;;;;14.60;9.00;;;;;;;6.05;100.00;99937.13;106194;1254;73674;-81
2024/01/02 08:04:29;;;;;;;8.70;6.30;;;;;;;6.07;100.00;99936.70;106197;1254;64331;-81
2024/01/02 08:06:57;;;;;;;10.30;7.10;;;;;;;6.08;100.00;99938.02;106282;1253;72682;-80
2024/01/02 08:09:26;;;;;;;13.70;7.50;;;;;;;6.09;100.00;99936.92;106286;1253;60440;-80
2024/01/02 08:11:53;;;;;;;17.60;7.80;;;;;;;6.10;100.00;99936.66;106138;1250;60443;-79
2024/01/02 08:14:20;;;;;;;15.70;8.60;;;;;;;6.11;100.00;99935.44;106160;1254;73846;-80
2024/01/02 08:16:48;;;;;;;13.20;8.20;;;;;;;6.10;100.00;99930.64;106210;1254;63521;-81
2024/01/02 08:19:15;;;;;;;10.10;7.30;;;;;;;6.10;100.00;99929.05;106144;1254;72744;-81
2024/01/02 08:21:42;;;;;;;14.90;9.90;;;;;;;6.11;100.00;99924.84;106213;1262;60813;-81
2024/01/02 08:24:09;;;;;;;12.80;8.40;;;;;;;6.12;100.00;99928.42;106177;1252;60684;-81
2024/01/02 08:26:37;;;;;;;13.60;9.60;;;;;;;6.14;100.00;99925.34;106208;1250;73830;-79
2024/01/02 08:29:03;;;;;;;14.30;9.50;;;;;;;6.16;100.00;99925.59;106219;1253;61476;-78
2024/01/02 08:31:30;;;;;;;12.20;9.00;;;;;;;6.17;100.00;99925.33;106151;1252;72537;-81
2024/01/02 08:33:57;;;;;;;10.80;8.00;;;;;;;6.18;100.00;99928.81;106146;1255;61067;-82
2024/01/02 08:36:24;;;;;;;11.20;8.30;;;;;;;6.19;100.00;99917.48;106173;1254;60533;-81
2024/01/02 08:38:51;;;;;;;11.80;7.70;;;;;;;6.19;100.00;99914.52;106213;1253;73777;-80
2024/01/02 08:41:19;;;;;;;11.50;8.00;;;;;;;6.19;100.00;99920.06;106201;1253;63817;-80
2024/01/02 08:43:45;;;;;;;12.90;7.40;;;;;;;6.22;100.00;99913.11;106232;1254;71217;-81
2024/01/02 08:46:13;;;;;;;12.80;7.80;;;;;;;6.25;100.00;99915.77;106148;1254;61082;-78
2024/01/02 08:48:40;;;;;;;19.40;9.60;;;;;;;6.27;100.00;99917.92;106321;1255;60430;-81
2024/01/02 08:51:07;;;;;;;9.10;5.80;;;;;;;6.28;100.00;99921.52;106206;1253;73822;-81
2024/01/02 08:53:34;;;;;;;15.40;8.10;;;;;;;6.29;100.00;99924.04;106180;1254;63950;-80
2024/01/02 08:56:02;;;;;;;11.80;7.00;;;;;;;6.31;100.00;99924.81;106328;1253;72710;-82
2024/01/02 08:58:30;;;;;;;10.50;7.60;;;;;;;6.35;100.00;99924.09;106335;1254;61212;-81
2024/01/02 09:00:56;;;;;;;12.70;6.80;;;;;;;6.39;100.00;99923.52;106214;1254;60492;-80
2024/01/02 09:03:23;;;;;;;11.10;7.00;;;;;;;6.42;100.00;99924.73;106236;1254;73636;-80
2024/01/02 09:05:50;;;;;;;7.90;6.00;;;;;;;6.47;100.00;99916.52;106142;1253;63645;-81
2024/01/02 09:08:17;;;;;;;11.00;6.70;;;;;;;6.48;100.00;99914.84;106159;1254;74238;-81
2024/01/02 09:10:44;;;;;;;8.00;6.20;;;;;;;6.54;100.00;99923.40;106057;1254;61571;-81
2024/01/02 09:13:12;;;;;;;7.40;5.20;;;;;;;6.58;100.00;99924.23;106119;1254;60402;-79
2024/01/02 09:15:39;;;;;;;9.40;5.70;;;;;;;6.63;100.00;99921.66;106174;1249;73881;-81
2024/01/02 09:18:07;;;;;;;9.70;4.60;;;;;;;6.68;100.00;99917.80;106171;1260;63529;-81
2024/01/02 09:20:35;;;;;;;7.20;4.90;;;;;;;6.73;100.00;99922.38;106223;1252;72663;-81
2024/01/02 09:23:02;;;;;;;13.10;8.30;;;;;;;6.78;100.00;99915.98;106152;1253;60424;-83
2024/01/02 09:25:31;;;;;;;13.30;7.20;;;;;;;6.82;100.00;99917.34;106225;1253;60430;-81
2024/01/02 09:27:59;;;;;;;9.30;5.40;;;;;;;6.86;100.00;99917.84;106216;1254;73668;-80
2024/01/02 09:30:29;;;;;;;7.80;5.80;;;;;;;6.88;100.00;99911.98;106172;1254;63570;-81
2024/01/02 09:34:15;;;;;;;6.70;5.20;;;;;;;6.92;100.00;99912.27;102767;1295;600676;-82
2024/01/02 09:36:42;;;;;;;9.20;5.90;;;;;;;6.91;100.00;99912.15;105020;1264;61497;-80
2024/01/02 09:39:10;;;;;;;7.60;5.20;;;;;;;6.95;100.00;99912.95;105061;1264;59977;-80
2024/01/02 09:42:00;;;;;;;8.90;5.80;;;;;;;6.99;100.00;99912.02;104949;1266;72371;-82
2024/01/02 09:44:55;;;;;;;14.10;6.40;;;;;;;7.03;100.00;99910.44;105166;1267;63670;-81
2024/01/02 09:47:44;;;;;;;8.60;6.20;;;;;;;7.04;100.00;99905.30;104987;1275;178075;-81
2024/01/02 09:50:23;;;;;;;11.50;7.20;;;;;;;7.09;100.00;99915.99;105214;1266;60010;-79
2024/01/02 09:53:02;;;;;;;8.00;5.50;;;;;;;7.14;100.00;99918.36;105201;1267;59240;-80
2024/01/02 09:55:35;;;;;;;9.00;5.50;;;;;;;7.19;100.00;99915.43;105107;1267;72292;-83
2024/01/02 09:58:09;;;;;;;9.90;5.30;;;;;;;7.24;100.00;99916.67;105362;1258;62428;-81
2024/01/02 10:00:57;;;;;;;7.10;5.50;;;;;;;7.30;100.00;99918.95;105491;1257;72511;-80
2024/01/02 10:03:43;;;;;;;8.90;5.20;;;;;;;7.36;100.00;99912.19;105734;1264;60956;-82
2024/01/02 10:06:20;;;;;;;10.00;5.80;;;;;;;7.43;100.00;99907.64;105919;1259;59797;-81
2024/01/02 10:09:12;;;;;;;7.60;5.40;;;;;;;7.49;100.00;99903.95;105648;1254;72245;-81
2024/01/02 10:11:49;;;;;;;9.60;5.80;;;;;;;7.54;100.00;99907.30;105825;1257;61952;-80
2024/01/02 10:14:46;;;;;;;5.50;4.50;;;;;;;7.61;100.00;99899.63;105709;1254;73039;-80
2024/01/02 10:17:30;;;;;;;8.50;5.20;;;;;;;7.68;100.00;99901.10;105795;1255;60513;-78
2024/01/02 10:20:08;;;;;;;7.00;5.00;;;;;;;7.72;100.00;99890.94;105928;1254;59800;-80
2024/01/02 10:22:57;;;;;;;6.60;4.50;;;;;;;7.78;100.00;99892.31;106055;1254;73200;-80
2024/01/02 10:25:24;;;;;;;8.40;5.90;;;;;;;7.83;100.00;99892.69;105843;1254;63713;-79
2024/01/02 10:28:07;;;;;;;9.50;4.90;;;;;;;7.87;100.00;99897.84;105870;1257;73346;-81
2024/01/02 10:30:43;;;;;;;12.60;6.60;;;;;;;7.92;100.00;99894.09;105768;1258;63089;-80
2024/01/02 10:33:21;;;;;;;7.10;4.40;;;;;;;7.97;100.00;99892.40;105817;1257;59647;-80
2024/01/02 10:35:52;;;;;;;9.70;5.00;;;;;;;8.01;100.00;99894.94;105774;1254;72057;-79
2024/01/02 10:38:27;;;;;;;7.40;4.90;;;;;;;8.03;100.00;99895.70;105688;1257;66287;-80
2024/01/02 10:41:22;;;;;;;5.60;4.00;;;;;;;8.04;100.00;99890.57;105768;1254;74752;-79
2024/01/02 10:43:56;;;;;;;7.70;4.50;;;;;;;8.04;100.00;99898.54;105770;1254;62251;-81
2024/01/02 10:46:37;;;;;;;7.60;3.60;;;;;;;8.05;100.00;99905.34;105776;1252;61207;-81
2024/01/02 10:49:17;;;;;;;5.20;3.10;;;;;;;8.05;100.00;99900.27;105663;1253;71388;-79
2024/01/02 10:51:47;;;;;;;5.80;4.10;;;;;;;8.07;100.00;99900.48;105717;1252;62583;-80
2024/01/02 10:54:22;;;;;;;8.30;3.90;;;;;;;8.10;100.00;99899.25;105836;1254;73182;-79
2024/01/02 10:57:01;;;;;;;6.40;3.00;;;;;;;8.12;100.00;99899.88;105742;1254;60073;-80
2024/01/02 10:59:43;;;;;;;6.20;3.70;;;;;;;8.12;100.00;99901.40;105709;1254;59772;-80
2024/01/02 11:02:23;;;;;;;4.20;3.70;;;;;;;8.12;100.00;99897.04;105795;1257;73526;-78
2024/01/02 11:04:58;;;;;;;6.50;2.70;;;;;;;8.11;100.00;99896.25;105779;1257;63784;-78
2024/01/02 11:07:35;;;;;;;6.00;2.80;;;;;;;8.09;100.00;99896.70;105738;1254;72811;-80
2024/01/02 11:10:05;;;;;;;5.30;3.30;;;;;;;8.05;100.00;99892.92;105737;1253;59732;-79
2024/01/02 11:12:47;;;;;;;3.20;2.50;;;;;;;8.01;100.00;99892.14;105564;1253;60253;-79
2024/01/02 11:15:16;;;;;;;5.70;3.20;;;;;;;7.98;100.00;99889.38;106011;1249;71761;-80
2024/01/02 11:17:45;;;;;;;6.80;3.20;;;;;;;7.95;100.00;99890.80;105818;1257;63555;-80
2024/01/02 11:20:14;;;;;;;3.00;2.40;;;;;;;7.89;100.00;99896.15;105867;1254;73581;-81
2024/01/02 11:23:02;;;;;;;4.90;3.10;;;;;;;7.85;100.00;99890.67;105876;1257;61168;-80